2Q9 weather

Dyer Airport
Dyer, Nevada, United States

Public forecast

Using degrees Fahrenheit for public forecast. Weather courtesy of forecast.io.

METAR (pilot weather report)

Closest report is Eastern Sierra Regional Airport, 22.2 nm (41.1 km) SW. Retrieved 2019/07/20 18:56 UTC (36 minutes ago):

KBIH 201856Z AUTO VRB03KT 10SM CLR 33/06 A2995 RMK AO2 SLP077 T03280056

TAF (pilot weather forecast)

Closest forecast is Eastern Sierra Regional Airport, 22.2 nm (41.1 km) SW. Retrieved 2019/07/20 18:22 UTC (1 hour ago):

TAF KBIH 201720Z 2018/2118 VRB05KT P6SM SKC FM202100 17010G18KT P6SM FEW120 FM210500 15010KT P6SM SKC FM210900 VRB05KT P6SM SKC